Argyle, Minnesota
Current Conditions -  °F | °C
As of 8:15 PM on Friday 24 Oct 2014 (Local Time) from KGAF Reporting Station
Clear Clear  
Wind Chill: 52°   Ceiling: Unl
Heat Index: 52°   Visibility: 10mi
Dew Point: 37°   Wind: 9mph
Humidity: 58%   Direction: 270°W
Pressure: 29.81"   Gusts: NA
Location:  48.33°N, 96.82°W
Report Text: KGAF 250115Z AUTO 27008KT 10SM CLR 11/03 A2981 RMK AO2
Loading
Personal Weather Stations






























Interactive Weather Map
Tropical Storm Tracking
New forecast layout! Learn more

10-Day Weather Forecast

Advertisements
Track Severe Weather on mobile